Manizales — CQKL — position and weather

sailwx.info

Track history (hours):
 
Tides and Currents Weather Stations Pressure Air Temp Water Temp Dewpoint Dewpoint Depression Visibility Wind Speed Wind Dir Waves Ship Positions

Manizales

Last reported at 2014-Sep-05 17:33 UTC. Time now 2014-Dec-21 22:18 UTC.
Position N 27°29' W 083°03'.
Warning: this ship's position is months out of date.

Length 119 m; draft 7.2 m.

Type: Cargo ship. MMSI: 255804560.

Date/timePositionNaut miles runAvg speedWind from/ knotsBaromVisibWave heightAir tempDewpointWater temp
2014-Sep-05 17:33N 27°29' W 083°03'9 8.5
2014-Sep-05 16:30N 27°36' W 082°57'910.0
2014-Sep-05 15:33N 27°37' W 082°46'10 9.0
2014-Sep-05 14:28N 27°39' W 082°35'2 1.7
2014-Sep-05 13:22N 27°38' W 082°34'0 0.0
2014-Sep-05 11:16N 27°38' W 082°34'0 0.0
2014-Sep-05 05:04N 27°38' W 082°34'0 0.0
2014-Sep-05 04:16N 27°38' W 082°34'0 0.0
2014-Sep-05 03:31N 27°38' W 082°34'0 0.0
2014-Sep-05 02:28N 27°38' W 082°34'0 0.0
2014-Sep-04 23:28N 27°38' W 082°34'0 0.0
2014-Sep-04 22:31N 27°38' W 082°34'0 0.0
2014-Sep-04 21:28N 27°38' W 082°34'0 0.0
2014-Sep-04 20:31N 27°38' W 082°34'0 0.0
2014-Sep-04 19:31N 27°38' W 082°34'0 0.0
2014-Sep-04 18:32N 27°38' W 082°34'0 0.0
2014-Sep-04 17:29N 27°38' W 082°34'0 0.0
2014-Sep-04 16:10N 27°38' W 082°34'0 0.0
2014-Sep-04 15:28N 27°38' W 082°34'0 0.0
2014-Sep-04 14:33N 27°38' W 082°34'0 0.0
2014-Sep-04 13:28N 27°38' W 082°34'0 0.0
2014-Sep-04 12:33N 27°38' W 082°34'0 0.0
2014-Sep-04 11:33N 27°38' W 082°34'0 0.0
2014-Sep-04 10:33N 27°38' W 082°34'0 0.0
2014-Sep-04 09:33N 27°38' W 082°34'0 0.0
2014-Sep-04 08:33N 27°38' W 082°34'0 0.0
2014-Sep-04 07:33N 27°38' W 082°34'6 5.5
2014-Sep-04 06:33N 27°37' W 082°40'1010.4
2014-Sep-04 05:33N 27°36' W 082°51'10 9.8
2014-Sep-04 04:33N 27°35' W 083°02'  
2014-Sep-01 06:33N 29°23' W 094°49'10 9.8
2014-Sep-01 05:33N 29°32' W 094°54'1010.4
2014-Sep-01 04:33N 29°41' W 094°59'8 7.0
2014-Sep-01 03:27N 29°44' W 095°07'0 0.1
2014-Sep-01 02:32N 29°44' W 095°07'0 0.0
2014-Sep-01 01:29N 29°44' W 095°07'0 0.0
2014-Sep-01 00:32N 29°44' W 095°07'0 0.0
2014-Aug-31 23:23N 29°44' W 095°07'0 0.0
2014-Aug-31 22:26N 29°44' W 095°07'0 0.0
2014-Aug-31 21:26N 29°44' W 095°07'0 0.0
2014-Aug-31 20:29N 29°44' W 095°07'0 0.0
2014-Aug-31 19:32N 29°44' W 095°07'0 0.0
2014-Aug-31 18:26N 29°44' W 095°07'0 0.0
2014-Aug-31 17:32N 29°44' W 095°07'0 0.0
2014-Aug-31 16:33N 29°44' W 095°07'0 0.0
2014-Aug-31 15:32N 29°44' W 095°07'0 0.0
2014-Aug-31 14:32N 29°44' W 095°07'0 0.0
2014-Aug-31 13:29N 29°44' W 095°07'0 0.0
2014-Aug-31 12:32N 29°44' W 095°07'0 0.0
2014-Aug-31 11:29N 29°44' W 095°07'0 0.0
2014-Aug-31 10:32N 29°44' W 095°07'0 0.0
2014-Aug-31 09:32N 29°44' W 095°07'0 0.0
2014-Aug-31 08:32N 29°44' W 095°07'0 0.0
2014-Aug-31 07:29N 29°44' W 095°07'0 0.0
2014-Aug-31 06:29N 29°44' W 095°07'0 0.0
2014-Aug-31 05:32N 29°44' W 095°07'0 0.0
2014-Aug-31 04:32N 29°44' W 095°07'0 0.0
2014-Aug-31 03:32N 29°44' W 095°07'0 0.0
2014-Aug-31 02:29N 29°44' W 095°07'0 0.0
2014-Aug-31 01:23N 29°44' W 095°07'0 0.0
2014-Aug-31 00:29N 29°44' W 095°07'0 0.0
2014-Aug-30 23:32N 29°44' W 095°07'0 0.0
2014-Aug-30 22:17N 29°44' W 095°07'0 0.0
2014-Aug-30 21:32N 29°44' W 095°07'0 0.0
2014-Aug-30 20:20N 29°44' W 095°07'0 0.0
2014-Aug-30 19:29N 29°44' W 095°07'0 0.0
2014-Aug-30 18:29N 29°44' W 095°07'0 0.0
2014-Aug-30 17:32N 29°44' W 095°07'0 0.0
2014-Aug-30 16:23N 29°44' W 095°07'0 0.0
2014-Aug-30 15:32N 29°44' W 095°07'0 0.0
2014-Aug-30 14:23N 29°44' W 095°07'0 0.0
2014-Aug-30 13:29N 29°44' W 095°07'0 0.0
2014-Aug-30 12:29N 29°44' W 095°07'0 0.0
2014-Aug-30 11:23N 29°44' W 095°07'0 0.0
2014-Aug-30 10:23N 29°44' W 095°07'0 0.0
2014-Aug-30 09:29N 29°44' W 095°07'0 0.0
2014-Aug-30 08:23N 29°44' W 095°07'0 0.0
2014-Aug-30 07:23N 29°44' W 095°07'0 0.0
2014-Aug-30 06:29N 29°44' W 095°07'0 0.0
2014-Aug-30 05:32N 29°44' W 095°07'0 0.0
2014-Aug-30 04:29N 29°44' W 095°07'0 0.0
2014-Aug-30 03:29N 29°44' W 095°07'0 0.0
2014-Aug-30 02:29N 29°44' W 095°07'0 0.0
2014-Aug-30 01:23N 29°44' W 095°07'0 0.0
2014-Aug-30 00:33N 29°44' W 095°07'0 0.0
2014-Aug-29 23:29N 29°44' W 095°07'0 0.0
2014-Aug-29 22:29N 29°44' W 095°07'0 0.0
2014-Aug-29 21:23N 29°44' W 095°07'0 0.0
2014-Aug-29 20:32N 29°44' W 095°07'0 0.0
2014-Aug-29 19:29N 29°44' W 095°07'0 0.0
2014-Aug-29 18:29N 29°44' W 095°07'0 0.0
2014-Aug-29 17:29N 29°44' W 095°07'0 0.0
2014-Aug-29 16:32N 29°44' W 095°07'0 0.0
2014-Aug-29 15:23N 29°44' W 095°07'0 0.0
2014-Aug-29 14:17N 29°44' W 095°07'0 0.0
2014-Aug-29 13:26N 29°44' W 095°07'0 0.0
2014-Aug-29 12:29N 29°44' W 095°07'0 0.0
2014-Aug-29 11:29N 29°44' W 095°07'0 0.0
2014-Aug-29 10:29N 29°44' W 095°07'0 0.0
2014-Aug-29 09:29N 29°44' W 095°07'0 0.0
2014-Aug-29 08:26N 29°44' W 095°07'0 0.0
2014-Aug-29 07:29N 29°44' W 095°07'0 0.0
2014-Aug-29 06:32N 29°44' W 095°07'0 0.0
2014-Aug-29 05:29N 29°44' W 095°07'0 0.0
2014-Aug-29 04:29N 29°44' W 095°07'0 0.0
2014-Aug-29 03:29N 29°44' W 095°07'0 0.0
2014-Aug-29 02:26N 29°44' W 095°07'0 0.0
2014-Aug-29 01:29N 29°44' W 095°07'0 0.0
2014-Aug-29 00:29N 29°44' W 095°07'0 0.0
2014-Aug-28 23:14N 29°44' W 095°07'0 0.0
2014-Aug-28 22:29N 29°44' W 095°07'0 0.0
2014-Aug-28 21:32N 29°44' W 095°07'0 0.0
2014-Aug-28 20:29N 29°44' W 095°07'0 0.0
2014-Aug-28 19:26N 29°44' W 095°07'0 0.0
2014-Aug-28 18:23N 29°44' W 095°07'0 0.0
2014-Aug-28 17:23N 29°44' W 095°07'0 0.0
2014-Aug-28 16:29N 29°44' W 095°07'0 0.0
2014-Aug-28 15:29N 29°44' W 095°07'0 0.0
2014-Aug-28 14:20N 29°44' W 095°07'0 0.0
2014-Aug-28 13:23N 29°44' W 095°07'0 0.0
2014-Aug-28 12:29N 29°44' W 095°07'0 0.0
2014-Aug-28 10:33N 29°44' W 095°07'1 1.4
2014-Aug-28 09:31N 29°45' W 095°06'7 7.4
2014-Aug-28 08:33N 29°41' W 094°59'9 9.3
2014-Aug-28 07:33N 29°33' W 094°54'9 9.4
2014-Aug-28 06:33N 29°25' W 094°49'  
Track history (hours):
 
Tides and Currents Weather Stations Pressure Air Temp Water Temp Dewpoint Dewpoint Depression Visibility Wind Speed Wind Dir Waves Ship Positions

Manizales

Last reported at 2014-Sep-05 17:33 UTC. Time now 2014-Dec-21 22:18 UTC.
Position N 27°29' W 083°03'.
Warning: this ship's position is months out of date.

Length 119 m; draft 7.2 m.

Type: Cargo ship. MMSI: 255804560.

Date/timePositionNaut miles runAvg speedWind from/ knotsBaromVisibWave heightAir tempDewpointWater temp
2014-Sep-05 17:33N 27°29' W 083°03'9 8.5
2014-Sep-05 16:30N 27°36' W 082°57'910.0
2014-Sep-05 15:33N 27°37' W 082°46'10 9.0
2014-Sep-05 14:28N 27°39' W 082°35'2 1.7
2014-Sep-05 13:22N 27°38' W 082°34'0 0.0
2014-Sep-05 11:16N 27°38' W 082°34'0 0.0
2014-Sep-05 05:04N 27°38' W 082°34'0 0.0
2014-Sep-05 04:16N 27°38' W 082°34'0 0.0
2014-Sep-05 03:31N 27°38' W 082°34'0 0.0
2014-Sep-05 02:28N 27°38' W 082°34'0 0.0
2014-Sep-04 23:28N 27°38' W 082°34'0 0.0
2014-Sep-04 22:31N 27°38' W 082°34'0 0.0
2014-Sep-04 21:28N 27°38' W 082°34'0 0.0
2014-Sep-04 20:31N 27°38' W 082°34'0 0.0
2014-Sep-04 19:31N 27°38' W 082°34'0 0.0
2014-Sep-04 18:32N 27°38' W 082°34'0 0.0
2014-Sep-04 17:29N 27°38' W 082°34'0 0.0
2014-Sep-04 16:10N 27°38' W 082°34'0 0.0
2014-Sep-04 15:28N 27°38' W 082°34'0 0.0
2014-Sep-04 14:33N 27°38' W 082°34'0 0.0
2014-Sep-04 13:28N 27°38' W 082°34'0 0.0
2014-Sep-04 12:33N 27°38' W 082°34'0 0.0
2014-Sep-04 11:33N 27°38' W 082°34'0 0.0
2014-Sep-04 10:33N 27°38' W 082°34'0 0.0
2014-Sep-04 09:33N 27°38' W 082°34'0 0.0
2014-Sep-04 08:33N 27°38' W 082°34'0 0.0
2014-Sep-04 07:33N 27°38' W 082°34'6 5.5
2014-Sep-04 06:33N 27°37' W 082°40'1010.4
2014-Sep-04 05:33N 27°36' W 082°51'10 9.8
2014-Sep-04 04:33N 27°35' W 083°02'  
2014-Sep-01 06:33N 29°23' W 094°49'10 9.8
2014-Sep-01 05:33N 29°32' W 094°54'1010.4
2014-Sep-01 04:33N 29°41' W 094°59'8 7.0
2014-Sep-01 03:27N 29°44' W 095°07'0 0.1
2014-Sep-01 02:32N 29°44' W 095°07'0 0.0
2014-Sep-01 01:29N 29°44' W 095°07'0 0.0
2014-Sep-01 00:32N 29°44' W 095°07'0 0.0
2014-Aug-31 23:23N 29°44' W 095°07'0 0.0
2014-Aug-31 22:26N 29°44' W 095°07'0 0.0
2014-Aug-31 21:26N 29°44' W 095°07'0 0.0
2014-Aug-31 20:29N 29°44' W 095°07'0 0.0
2014-Aug-31 19:32N 29°44' W 095°07'0 0.0
2014-Aug-31 18:26N 29°44' W 095°07'0 0.0
2014-Aug-31 17:32N 29°44' W 095°07'0 0.0
2014-Aug-31 16:33N 29°44' W 095°07'0 0.0
2014-Aug-31 15:32N 29°44' W 095°07'0 0.0
2014-Aug-31 14:32N 29°44' W 095°07'0 0.0
2014-Aug-31 13:29N 29°44' W 095°07'0 0.0
2014-Aug-31 12:32N 29°44' W 095°07'0 0.0
2014-Aug-31 11:29N 29°44' W 095°07'0 0.0
2014-Aug-31 10:32N 29°44' W 095°07'0 0.0
2014-Aug-31 09:32N 29°44' W 095°07'0 0.0
2014-Aug-31 08:32N 29°44' W 095°07'0 0.0
2014-Aug-31 07:29N 29°44' W 095°07'0 0.0
2014-Aug-31 06:29N 29°44' W 095°07'0 0.0
2014-Aug-31 05:32N 29°44' W 095°07'0 0.0
2014-Aug-31 04:32N 29°44' W 095°07'0 0.0
2014-Aug-31 03:32N 29°44' W 095°07'0 0.0
2014-Aug-31 02:29N 29°44' W 095°07'0 0.0
2014-Aug-31 01:23N 29°44' W 095°07'0 0.0
2014-Aug-31 00:29N 29°44' W 095°07'0 0.0
2014-Aug-30 23:32N 29°44' W 095°07'0 0.0
2014-Aug-30 22:17N 29°44' W 095°07'0 0.0
2014-Aug-30 21:32N 29°44' W 095°07'0 0.0
2014-Aug-30 20:20N 29°44' W 095°07'0 0.0
2014-Aug-30 19:29N 29°44' W 095°07'0 0.0
2014-Aug-30 18:29N 29°44' W 095°07'0 0.0
2014-Aug-30 17:32N 29°44' W 095°07'0 0.0
2014-Aug-30 16:23N 29°44' W 095°07'0 0.0
2014-Aug-30 15:32N 29°44' W 095°07'0 0.0
2014-Aug-30 14:23N 29°44' W 095°07'0 0.0
2014-Aug-30 13:29N 29°44' W 095°07'0 0.0
2014-Aug-30 12:29N 29°44' W 095°07'0 0.0
2014-Aug-30 11:23N 29°44' W 095°07'0 0.0
2014-Aug-30 10:23N 29°44' W 095°07'0 0.0
2014-Aug-30 09:29N 29°44' W 095°07'0 0.0
2014-Aug-30 08:23N 29°44' W 095°07'0 0.0
2014-Aug-30 07:23N 29°44' W 095°07'0 0.0
2014-Aug-30 06:29N 29°44' W 095°07'0 0.0
2014-Aug-30 05:32N 29°44' W 095°07'0 0.0
2014-Aug-30 04:29N 29°44' W 095°07'0 0.0
2014-Aug-30 03:29N 29°44' W 095°07'0 0.0
2014-Aug-30 02:29N 29°44' W 095°07'0 0.0
2014-Aug-30 01:23N 29°44' W 095°07'0 0.0
2014-Aug-30 00:33N 29°44' W 095°07'0 0.0
2014-Aug-29 23:29N 29°44' W 095°07'0 0.0
2014-Aug-29 22:29N 29°44' W 095°07'0 0.0
2014-Aug-29 21:23N 29°44' W 095°07'0 0.0
2014-Aug-29 20:32N 29°44' W 095°07'0 0.0
2014-Aug-29 19:29N 29°44' W 095°07'0 0.0
2014-Aug-29 18:29N 29°44' W 095°07'0 0.0
2014-Aug-29 17:29N 29°44' W 095°07'0 0.0
2014-Aug-29 16:32N 29°44' W 095°07'0 0.0
2014-Aug-29 15:23N 29°44' W 095°07'0 0.0
2014-Aug-29 14:17N 29°44' W 095°07'0 0.0
2014-Aug-29 13:26N 29°44' W 095°07'0 0.0
2014-Aug-29 12:29N 29°44' W 095°07'0 0.0
2014-Aug-29 11:29N 29°44' W 095°07'0 0.0
2014-Aug-29 10:29N 29°44' W 095°07'0 0.0
2014-Aug-29 09:29N 29°44' W 095°07'0 0.0
2014-Aug-29 08:26N 29°44' W 095°07'0 0.0
2014-Aug-29 07:29N 29°44' W 095°07'0 0.0
2014-Aug-29 06:32N 29°44' W 095°07'0 0.0
2014-Aug-29 05:29N 29°44' W 095°07'0 0.0
2014-Aug-29 04:29N 29°44' W 095°07'0 0.0
2014-Aug-29 03:29N 29°44' W 095°07'0 0.0
2014-Aug-29 02:26N 29°44' W 095°07'0 0.0
2014-Aug-29 01:29N 29°44' W 095°07'0 0.0
2014-Aug-29 00:29N 29°44' W 095°07'0 0.0
2014-Aug-28 23:14N 29°44' W 095°07'0 0.0
2014-Aug-28 22:29N 29°44' W 095°07'0 0.0
2014-Aug-28 21:32N 29°44' W 095°07'0 0.0
2014-Aug-28 20:29N 29°44' W 095°07'0 0.0
2014-Aug-28 19:26N 29°44' W 095°07'0 0.0
2014-Aug-28 18:23N 29°44' W 095°07'0 0.0
2014-Aug-28 17:23N 29°44' W 095°07'0 0.0
2014-Aug-28 16:29N 29°44' W 095°07'0 0.0
2014-Aug-28 15:29N 29°44' W 095°07'0 0.0
2014-Aug-28 14:20N 29°44' W 095°07'0 0.0
2014-Aug-28 13:23N 29°44' W 095°07'0 0.0
2014-Aug-28 12:29N 29°44' W 095°07'0 0.0
2014-Aug-28 10:33N 29°44' W 095°07'1 1.4
2014-Aug-28 09:31N 29°45' W 095°06'7 7.4
2014-Aug-28 08:33N 29°41' W 094°59'9 9.3
2014-Aug-28 07:33N 29°33' W 094°54'9 9.4
2014-Aug-28 06:33N 29°25' W 094°49'  

Dump ship's entire track history